Time,TemperatureF,DewpointF,PressureIn,WindDirection,WindDirectionDegrees,WindSpeedMPH,WindSpeedGustMPH,Humidity,HourlyPrecipIn,Conditions,Clouds,dailyrainin,SoftwareType,DateUTC
2013-03-24 00:02:00,27.0,22.0,-100.00,NNW,340,4.0,11.0,80,0.00,,,-99.99,,2013-03-24 05:02:00,
2013-03-24 00:12:00,27.0,22.0,-100.00,North,350,6.0,10.0,81,0.00,,,-99.99,,2013-03-24 05:12:00,
2013-03-24 00:22:00,27.0,22.0,-100.00,NNW,345,3.0,10.0,82,0.00,,,-99.99,,2013-03-24 05:22:00,
2013-03-24 00:32:00,27.0,23.0,-100.00,NNW,345,4.0,7.0,82,0.00,,,-99.99,,2013-03-24 05:32:00,
2013-03-24 00:42:00,27.0,23.0,-100.00,North,5,3.0,7.0,83,0.00,,,-99.99,,2013-03-24 05:42:00,
2013-03-24 00:52:00,27.0,22.0,-100.00,North,0,6.0,10.0,82,0.00,,,-99.99,,2013-03-24 05:52:00,
2013-03-24 01:02:00,27.0,22.0,-100.00,North,0,6.0,10.0,82,0.00,,,-99.99,,2013-03-24 06:02:00,
2013-03-24 01:12:00,27.0,22.0,-100.00,NNW,345,5.0,9.0,82,0.00,,,-99.99,,2013-03-24 06:12:00,
2013-03-24 01:22:00,27.0,22.0,-100.00,NNE,15,7.0,11.0,82,0.00,,,-99.99,,2013-03-24 06:22:00,
2013-03-24 01:32:00,27.0,22.0,-100.00,North,0,6.0,11.0,83,0.00,,,-99.99,,2013-03-24 06:32:00,
2013-03-24 01:42:00,27.0,23.0,-100.00,North,350,5.0,11.0,84,0.00,,,-99.99,,2013-03-24 06:42:00,
2013-03-24 01:52:00,27.0,23.0,-100.00,North,350,3.0,10.0,84,0.00,,,-99.99,,2013-03-24 06:52:00,
2013-03-24 02:02:00,27.0,23.0,-100.00,North,350,3.0,10.0,84,0.00,,,-99.99,,2013-03-24 07:02:00,
2013-03-24 02:12:00,27.0,23.0,-100.00,North,350,3.0,10.0,84,0.00,,,-99.99,,2013-03-24 07:12:00,
2013-03-24 02:22:00,26.0,23.0,-100.00,North,350,2.0,8.0,85,0.00,,,-99.99,,2013-03-24 07:22:00,
2013-03-24 02:32:00,26.0,23.0,-100.00,NNW,345,6.0,10.0,86,0.00,,,-99.99,,2013-03-24 07:32:00,
2013-03-24 02:42:00,26.0,23.0,-100.00,NNW,345,6.0,10.0,86,0.00,,,-99.99,,2013-03-24 07:42:00,
2013-03-24 02:52:00,26.0,23.0,-100.00,NNW,335,6.0,11.0,87,0.00,,,-99.99,,2013-03-24 07:52:00,
2013-03-24 03:03:00,26.0,23.0,-100.00,NNW,335,6.0,11.0,87,0.00,,,-99.99,,2013-03-24 08:03:00,
2013-03-24 03:12:00,26.0,23.0,-100.00,WNW,290,6.0,11.0,88,0.00,,,-99.99,,2013-03-24 08:12:00,
2013-03-24 03:22:00,26.0,23.0,-100.00,NNW,335,6.0,12.0,88,0.00,,,-99.99,,2013-03-24 08:22:00,
2013-03-24 03:32:00,26.0,23.0,-100.00,NNW,335,6.0,12.0,88,0.00,,,-99.99,,2013-03-24 08:32:00,
2013-03-24 03:42:00,26.0,23.0,-100.00,NNW,335,6.0,9.0,88,0.00,,,-99.99,,2013-03-24 08:42:00,
2013-03-24 03:52:00,26.0,23.0,-100.00,NNW,345,5.0,8.0,88,0.00,,,-99.99,,2013-03-24 08:52:00,
2013-03-24 04:02:00,26.0,23.0,-100.00,NNW,340,6.0,10.0,88,0.00,,,-99.99,,2013-03-24 09:02:00,
2013-03-24 04:12:00,26.0,23.0,-100.00,North,0,6.0,11.0,88,0.00,,,-99.99,,2013-03-24 09:12:00,
2013-03-24 04:22:00,26.0,23.0,-100.00,North,0,6.0,11.0,88,0.00,,,-99.99,,2013-03-24 09:22:00,
2013-03-24 04:33:00,26.0,23.0,-100.00,West,270,6.0,11.0,88,0.00,,,-99.99,,2013-03-24 09:33:00,
2013-03-24 04:42:00,26.0,23.0,-100.00,NNW,340,7.0,12.0,89,0.00,,,-99.99,,2013-03-24 09:42:00,
2013-03-24 04:52:00,26.0,23.0,-100.00,West,260,4.0,9.0,89,0.00,,,-99.99,,2013-03-24 09:52:00,
2013-03-24 05:03:00,26.0,23.0,-100.00,North,350,2.0,8.0,89,0.00,,,-99.99,,2013-03-24 10:03:00,
2013-03-24 05:12:00,26.0,23.0,-100.00,North,350,2.0,8.0,89,0.00,,,-99.99,,2013-03-24 10:12:00,
2013-03-24 05:22:00,25.0,22.0,-100.00,NNW,335,6.0,11.0,89,0.00,,,-99.99,,2013-03-24 10:22:00,
2013-03-24 05:32:00,25.0,22.0,-100.00,NNW,340,5.0,10.0,89,0.00,,,-99.99,,2013-03-24 10:32:00,
2013-03-24 05:42:00,25.0,22.0,-100.00,NNW,340,5.0,10.0,89,0.00,,,-99.99,,2013-03-24 10:42:00,
2013-03-24 05:52:00,25.0,23.0,-100.00,NNW,345,6.0,9.0,90,0.00,,,-99.99,,2013-03-24 10:52:00,
2013-03-24 06:03:00,25.0,23.0,-100.00,NNW,345,5.0,11.0,90,0.00,,,-99.99,,2013-03-24 11:03:00,
2013-03-24 06:12:00,25.0,23.0,-100.00,North,350,5.0,11.0,91,0.00,,,-99.99,,2013-03-24 11:12:00,
2013-03-24 06:22:00,25.0,23.0,-100.00,North,350,5.0,11.0,91,0.00,,,-99.99,,2013-03-24 11:22:00,
2013-03-24 06:32:00,25.0,23.0,-100.00,West,270,6.0,9.0,92,0.00,,,-99.99,,2013-03-24 11:32:00,
2013-03-24 06:42:00,25.0,23.0,-100.00,NNW,335,6.0,12.0,93,0.00,,,-99.99,,2013-03-24 11:42:00,
2013-03-24 06:52:00,25.0,23.0,-100.00,NNW,345,9.0,14.0,93,0.00,,,-99.99,,2013-03-24 11:52:00,
2013-03-24 07:02:00,25.0,23.0,-100.00,NNW,345,9.0,14.0,93,0.00,,,-99.99,,2013-03-24 12:02:00,
2013-03-24 07:12:00,25.0,23.0,-100.00,West,280,9.0,14.0,94,0.00,,,-99.99,,2013-03-24 12:12:00,
2013-03-24 07:22:00,25.0,23.0,-100.00,NNW,335,7.0,14.0,94,0.00,,,-99.99,,2013-03-24 12:22:00,
2013-03-24 07:32:00,24.0,23.0,-100.00,WSW,245,6.0,13.0,94,0.00,,,-99.99,,2013-03-24 12:32:00,
2013-03-24 07:42:00,24.0,23.0,-100.00,North,0,6.0,11.0,94,0.00,,,-99.99,,2013-03-24 12:42:00,
2013-03-24 07:52:00,25.0,23.0,-100.00,NNE,15,9.0,12.0,94,0.00,,,-99.99,,2013-03-24 12:52:00,
2013-03-24 08:02:00,25.0,23.0,-100.00,NNE,15,9.0,12.0,94,0.00,,,-99.99,,2013-03-24 13:02:00,
2013-03-24 08:12:00,24.0,23.0,-100.00,North,10,9.0,12.0,93,0.00,,,-99.99,,2013-03-24 13:12:00,
2013-03-24 08:22:00,25.0,23.0,-100.00,North,0,9.0,12.0,93,0.00,,,-99.99,,2013-03-24 13:22:00,
2013-03-24 08:32:00,25.0,23.0,-100.00,North,10,10.0,14.0,92,0.00,,,-99.99,,2013-03-24 13:32:00,
2013-03-24 08:42:00,25.0,23.0,-100.00,North,10,10.0,14.0,92,0.00,,,-99.99,,2013-03-24 13:42:00,
2013-03-24 08:52:00,26.0,24.0,-100.00,NNE,15,9.0,14.0,92,0.01,,,-99.99,,2013-03-24 13:52:00,
2013-03-24 09:02:00,26.0,24.0,-100.00,NNE,15,9.0,14.0,92,0.01,,,-99.99,,2013-03-24 14:02:00,
2013-03-24 09:12:00,26.0,24.0,-100.00,NNE,15,9.0,14.0,92,0.01,,,-99.99,,2013-03-24 14:12:00,
2013-03-24 09:22:00,26.0,24.0,-100.00,North,5,9.0,14.0,92,0.01,,,-99.99,,2013-03-24 14:22:00,
2013-03-24 09:32:00,26.0,24.0,-100.00,NNE,15,12.0,15.0,92,0.01,,,-99.99,,2013-03-24 14:32:00,
2013-03-24 09:42:00,26.0,24.0,-100.00,NNE,15,12.0,15.0,92,0.01,,,-99.99,,2013-03-24 14:42:00,
2013-03-24 09:52:00,26.0,24.0,-100.00,North,5,10.0,14.0,92,0.00,,,-99.99,,2013-03-24 14:52:00,
2013-03-24 10:02:00,26.0,24.0,-100.00,North,5,10.0,14.0,92,0.00,,,-99.99,,2013-03-24 15:02:00,
2013-03-24 10:12:00,26.0,24.0,-100.00,North,10,11.0,16.0,91,0.00,,,-99.99,,2013-03-24 15:12:00,
2013-03-24 10:22:00,26.0,24.0,-100.00,NNE,15,9.0,13.0,90,0.00,,,-99.99,,2013-03-24 15:22:00,
2013-03-24 10:33:00,27.0,24.0,-100.00,NNE,15,7.0,12.0,88,0.00,,,-99.99,,2013-03-24 15:33:00,
2013-03-24 10:43:00,27.0,24.0,-100.00,NNE,15,7.0,12.0,88,0.00,,,-99.99,,2013-03-24 15:43:00,
2013-03-24 10:53:00,27.0,24.0,-100.00,North,10,10.0,14.0,87,0.00,,,-99.99,,2013-03-24 15:53:00,
2013-03-24 11:03:00,27.0,24.0,-100.00,North,10,10.0,14.0,87,0.00,,,-99.99,,2013-03-24 16:03:00,
2013-03-24 11:12:00,27.0,24.0,-100.00,NNE,15,8.0,13.0,86,0.00,,,-99.99,,2013-03-24 16:12:00,
2013-03-24 11:22:00,28.0,24.0,-100.00,NNE,15,9.0,10.0,86,0.00,,,-99.99,,2013-03-24 16:22:00,
2013-03-24 11:33:00,28.0,25.0,-100.00,NNE,15,9.0,11.0,86,0.00,,,-99.99,,2013-03-24 16:33:00,
2013-03-24 11:42:00,29.0,25.0,-100.00,North,10,7.0,11.0,86,0.00,,,-99.99,,2013-03-24 16:42:00,
2013-03-24 11:52:00,30.0,26.0,-100.00,NNE,15,8.0,9.0,83,0.07,,,-99.99,,2013-03-24 16:52:00,
2013-03-24 12:02:00,30.0,26.0,-100.00,NNE,15,8.0,9.0,83,0.07,,,-99.99,,2013-03-24 17:02:00,
2013-03-24 12:12:00,29.0,25.0,-100.00,NNE,20,9.0,11.0,83,0.00,,,-99.99,,2013-03-24 17:12:00,
2013-03-24 12:22:00,29.0,25.0,-100.00,NNE,20,9.0,11.0,83,0.00,,,-99.99,,2013-03-24 17:22:00,
2013-03-24 12:33:00,30.0,26.0,-100.00,NNE,15,7.0,11.0,84,0.01,,,-99.99,,2013-03-24 17:33:00,
2013-03-24 12:42:00,30.0,26.0,-100.00,NNE,15,7.0,11.0,84,0.01,,,-99.99,,2013-03-24 17:42:00,
2013-03-24 12:52:00,31.0,27.0,-100.00,NNE,15,7.0,12.0,83,0.01,,,-99.99,,2013-03-24 17:52:00,
2013-03-24 13:03:00,31.0,27.0,-100.00,NNE,15,7.0,12.0,83,0.01,,,-99.99,,2013-03-24 18:03:00,
2013-03-24 13:12:00,33.0,27.0,-100.00,North,5,6.0,11.0,80,0.00,,,-99.99,,2013-03-24 18:12:00,
2013-03-24 13:22:00,33.0,27.0,-100.00,North,10,5.0,9.0,78,0.06,,,-99.99,,2013-03-24 18:22:00,
2013-03-24 13:32:00,31.0,26.0,-100.00,NNE,20,9.0,12.0,79,0.06,,,-99.99,,2013-03-24 18:32:00,
2013-03-24 13:42:00,31.0,26.0,-100.00,NNE,20,9.0,12.0,79,0.06,,,-99.99,,2013-03-24 18:42:00,
2013-03-24 13:52:00,31.0,25.0,-100.00,NNE,15,7.0,12.0,78,0.06,,,-99.99,,2013-03-24 18:52:00,
2013-03-24 14:02:00,31.0,25.0,-100.00,NNE,15,7.0,12.0,78,0.06,,,-99.99,,2013-03-24 19:02:00,
2013-03-24 14:12:00,31.0,26.0,-100.00,North,10,9.0,12.0,79,0.06,,,-99.99,,2013-03-24 19:12:00,
2013-03-24 14:22:00,32.0,26.0,-100.00,North,5,6.0,12.0,78,0.00,,,-99.99,,2013-03-24 19:22:00,
2013-03-24 14:32:00,32.0,26.0,-100.00,North,0,7.0,12.0,75,0.00,,,-99.99,,2013-03-24 19:32:00,
2013-03-24 14:42:00,32.0,26.0,-100.00,North,0,7.0,12.0,75,0.00,,,-99.99,,2013-03-24 19:42:00,
2013-03-24 14:52:00,32.0,26.0,-100.00,NNE,15,9.0,14.0,77,0.06,,,-99.99,,2013-03-24 19:52:00,
2013-03-24 15:02:00,32.0,26.0,-100.00,NNE,15,9.0,14.0,77,0.06,,,-99.99,,2013-03-24 20:02:00,
2013-03-24 15:12:00,31.0,25.0,-100.00,NNE,20,11.0,14.0,79,0.06,,,-99.99,,2013-03-24 20:12:00,
2013-03-24 15:22:00,31.0,25.0,-100.00,NNE,15,11.0,16.0,77,0.07,,,-99.99,,2013-03-24 20:22:00,
2013-03-24 15:32:00,32.0,25.0,-100.00,NNE,25,9.0,16.0,77,0.00,,,-99.99,,2013-03-24 20:32:00,
2013-03-24 15:42:00,32.0,25.0,-100.00,NNE,25,9.0,16.0,77,0.00,,,-99.99,,2013-03-24 20:42:00,
2013-03-24 15:52:00,31.0,25.0,-100.00,NNE,15,11.0,16.0,77,0.07,,,-99.99,,2013-03-24 20:52:00,
2013-03-24 16:02:00,31.0,25.0,-100.00,NNE,15,11.0,16.0,77,0.07,,,-99.99,,2013-03-24 21:02:00,
2013-03-24 16:12:00,30.0,25.0,-100.00,NNE,15,10.0,14.0,80,0.07,,,-99.99,,2013-03-24 21:12:00,
2013-03-24 16:22:00,31.0,25.0,-100.00,North,10,12.0,16.0,79,0.08,,,-99.99,,2013-03-24 21:22:00,
2013-03-24 16:33:00,30.0,25.0,-100.00,NNE,15,11.0,18.0,81,0.08,,,-99.99,,2013-03-24 21:33:00,
2013-03-24 16:43:00,30.0,25.0,-100.00,NNE,15,11.0,18.0,81,0.08,,,-99.99,,2013-03-24 21:43:00,
2013-03-24 16:52:00,30.0,26.0,-100.00,NNE,20,12.0,16.0,84,0.08,,,-99.99,,2013-03-24 21:52:00,
2013-03-24 17:02:00,30.0,26.0,-100.00,NNE,20,12.0,16.0,84,0.08,,,-99.99,,2013-03-24 22:02:00,
2013-03-24 17:13:00,30.0,25.0,-100.00,North,10,12.0,17.0,83,0.08,,,-99.99,,2013-03-24 22:13:00,
2013-03-24 17:22:00,30.0,26.0,-100.00,NNE,15,11.0,16.0,83,0.07,,,-99.99,,2013-03-24 22:22:00,
2013-03-24 17:33:00,30.0,26.0,-100.00,NNE,25,9.0,17.0,85,0.07,,,-99.99,,2013-03-24 22:33:00,
2013-03-24 17:42:00,30.0,26.0,-100.00,NNE,25,9.0,17.0,85,0.07,,,-99.99,,2013-03-24 22:42:00,
2013-03-24 17:52:00,29.0,26.0,-100.00,NNE,15,11.0,15.0,86,0.07,,,-99.99,,2013-03-24 22:52:00,
2013-03-24 18:02:00,29.0,26.0,-100.00,NNE,15,11.0,15.0,86,0.07,,,-99.99,,2013-03-24 23:02:00,
2013-03-24 18:12:00,29.0,26.0,-100.00,North,10,12.0,16.0,86,0.08,,,-99.99,,2013-03-24 23:12:00,
2013-03-24 18:22:00,29.0,26.0,-100.00,NNE,15,11.0,16.0,86,0.00,,,-99.99,,2013-03-24 23:22:00,
2013-03-24 18:32:00,29.0,26.0,-100.00,NNE,15,9.0,16.0,85,0.00,,,-99.99,,2013-03-24 23:32:00,
2013-03-24 18:42:00,29.0,26.0,-100.00,NNE,15,9.0,16.0,85,0.00,,,-99.99,,2013-03-24 23:42:00,
2013-03-24 18:52:00,29.0,25.0,-100.00,North,10,15.0,21.0,82,0.00,,,-99.99,,2013-03-24 23:52:00,
2013-03-24 19:02:00,29.0,25.0,-100.00,North,10,15.0,21.0,82,0.00,,,-99.99,,2013-03-25 00:02:00,
2013-03-24 19:12:00,29.0,24.0,-100.00,North,10,14.0,19.0,82,0.00,,,-99.99,,2013-03-25 00:12:00,
2013-03-24 19:22:00,29.0,24.0,-100.00,North,10,14.0,19.0,82,0.00,,,-99.99,,2013-03-25 00:22:00,
2013-03-24 19:32:00,29.0,24.0,-100.00,North,10,11.0,18.0,82,0.00,,,-99.99,,2013-03-25 00:32:00,
2013-03-24 19:42:00,29.0,24.0,-100.00,North,10,11.0,18.0,82,0.00,,,-99.99,,2013-03-25 00:42:00,
2013-03-24 19:52:00,29.0,24.0,-100.00,North,5,12.0,16.0,82,0.00,,,-99.99,,2013-03-25 00:52:00,
2013-03-24 20:02:00,29.0,24.0,-100.00,North,5,12.0,16.0,82,0.00,,,-99.99,,2013-03-25 01:02:00,
2013-03-24 20:12:00,28.0,24.0,-100.00,NNE,15,12.0,19.0,84,0.00,,,-99.99,,2013-03-25 01:12:00,
2013-03-24 20:22:00,28.0,25.0,-100.00,North,5,9.0,17.0,87,0.00,,,-99.99,,2013-03-25 01:22:00,
2013-03-24 20:32:00,28.0,25.0,-100.00,North,0,9.0,14.0,88,0.00,,,-99.99,,2013-03-25 01:32:00,
2013-03-24 20:42:00,28.0,25.0,-100.00,North,0,9.0,14.0,88,0.00,,,-99.99,,2013-03-25 01:42:00,
2013-03-24 20:52:00,28.0,25.0,-100.00,North,10,11.0,17.0,87,0.00,,,-99.99,,2013-03-25 01:52:00,
2013-03-24 21:02:00,28.0,24.0,-100.00,North,0,11.0,19.0,86,0.00,,,-99.99,,2013-03-25 02:02:00,
2013-03-24 21:12:00,28.0,24.0,-100.00,North,5,12.0,19.0,86,0.00,,,-99.99,,2013-03-25 02:12:00,
2013-03-24 21:22:00,28.0,24.0,-100.00,North,5,11.0,19.0,86,0.00,,,-99.99,,2013-03-25 02:22:00,
2013-03-24 21:32:00,28.0,24.0,-100.00,North,10,10.0,16.0,86,0.00,,,-99.99,,2013-03-25 02:32:00,
2013-03-24 21:42:00,28.0,24.0,-100.00,North,5,7.0,16.0,86,0.00,,,-99.99,,2013-03-25 02:42:00,
2013-03-24 21:52:00,28.0,24.0,-100.00,North,5,6.0,11.0,86,0.00,,,-99.99,,2013-03-25 02:52:00,
2013-03-24 22:02:00,28.0,24.0,-100.00,North,5,6.0,11.0,86,0.00,,,-99.99,,2013-03-25 03:02:00,
2013-03-24 22:12:00,28.0,24.0,-100.00,NNW,335,6.0,12.0,86,0.00,,,-99.99,,2013-03-25 03:12:00,
2013-03-24 22:22:00,28.0,25.0,-100.00,WSW,250,7.0,12.0,86,0.00,,,-99.99,,2013-03-25 03:22:00,
2013-03-24 22:33:00,28.0,24.0,-100.00,North,0,9.0,16.0,86,0.00,,,-99.99,,2013-03-25 03:33:00,
2013-03-24 22:42:00,28.0,24.0,-100.00,North,0,9.0,16.0,86,0.00,,,-99.99,,2013-03-25 03:42:00,
2013-03-24 22:53:00,28.0,25.0,-100.00,NNW,340,7.0,13.0,87,0.00,,,-99.99,,2013-03-25 03:53:00,
2013-03-24 23:02:00,28.0,25.0,-100.00,NNW,340,7.0,16.0,87,0.00,,,-99.99,,2013-03-25 04:02:00,
2013-03-24 23:12:00,28.0,25.0,-100.00,North,5,6.0,12.0,85,0.00,,,-99.99,,2013-03-25 04:12:00,
2013-03-24 23:22:00,28.0,25.0,-100.00,North,5,6.0,12.0,85,0.00,,,-99.99,,2013-03-25 04:22:00,
2013-03-24 23:33:00,29.0,24.0,-100.00,North,5,6.0,11.0,83,0.00,,,-99.99,,2013-03-25 04:33:00,
2013-03-24 23:43:00,29.0,24.0,-100.00,North,5,11.0,17.0,82,0.00,,,-99.99,,2013-03-25 04:43:00,
2013-03-24 23:52:00,29.0,24.0,-100.00,North,0,11.0,16.0,81,0.00,,,-99.99,,2013-03-25 04:52:00,